createdAt,value
2022-11-03T00:03:05.478Z,18.40
2022-11-03T00:08:03.318Z,18.13
2022-11-03T00:12:59.609Z,17.13
2022-11-03T00:17:55.787Z,18.75
2022-11-03T00:22:52.011Z,18.83
2022-11-03T00:27:53.762Z,18.48
2022-11-03T00:32:49.975Z,18.43
2022-11-03T00:37:46.160Z,20.55
2022-11-03T00:42:42.422Z,20.48
2022-11-03T00:47:58.610Z,21.02
2022-11-03T00:52:54.809Z,20.05
2022-11-03T00:57:52.850Z,22.35
2022-11-03T01:02:49.124Z,20.35
2022-11-03T01:07:45.431Z,20.67
2022-11-03T01:12:41.728Z,18.73
2022-11-03T01:17:39.447Z,20.45
2022-11-03T01:22:35.663Z,19.77
2022-11-03T01:27:34.550Z,21.17
2022-11-03T01:32:30.753Z,20.50
2022-11-03T01:37:26.964Z,19.52
2022-11-03T01:42:23.182Z,18.55
2022-11-03T01:47:22.553Z,19.25
2022-11-03T01:52:18.717Z,19.02
2022-11-03T01:57:17.006Z,21.38
2022-11-03T02:02:13.564Z,19.23
2022-11-03T02:07:22.977Z,16.73
2022-11-03T02:12:21.043Z,16.73
2022-11-03T02:17:18.059Z,14.27
2022-11-03T02:22:32.962Z,15.88
2022-11-03T02:27:29.326Z,14.10
2022-11-03T02:32:28.179Z,16.17
2022-11-03T02:37:28.116Z,15.50
2022-11-03T02:42:24.494Z,16.02
2022-11-03T02:47:21.413Z,16.10
2022-11-03T02:52:53.174Z,16.27
2022-11-03T02:57:53.481Z,16.17
2022-11-03T03:02:52.580Z,16.60
2022-11-03T03:07:51.205Z,16.25
2022-11-03T03:12:49.017Z,15.80
2022-11-03T03:17:50.313Z,15.38
2022-11-03T03:22:50.057Z,15.95
2022-11-03T03:27:48.321Z,16.15
2022-11-03T03:32:46.513Z,14.88
2022-11-03T03:37:44.762Z,16.90
2022-11-03T03:42:43.589Z,15.80
2022-11-03T03:47:40.136Z,17.05
2022-11-03T03:52:37.193Z,17.58
2022-11-03T03:57:33.404Z,16.52
2022-11-03T04:02:29.690Z,17.48
2022-11-03T04:07:44.466Z,18.05
2022-11-03T04:13:03.160Z,17.55
2022-11-03T04:18:18.282Z,17.83
2022-11-03T04:23:14.543Z,18.73
2022-11-03T04:28:12.228Z,18.80
2022-11-03T04:33:16.302Z,18.70
2022-11-03T04:38:12.468Z,19.63
2022-11-03T04:43:15.726Z,19.33
2022-11-03T04:48:32.367Z,18.55
2022-11-03T04:53:30.598Z,21.75
2022-11-03T04:58:28.399Z,29.35
2022-11-03T05:03:29.122Z,21.90
2022-11-03T05:08:25.340Z,20.60
2022-11-03T05:13:24.037Z,21.48
2022-11-03T05:18:22.159Z,22.52
2022-11-03T05:23:19.285Z,23.35
2022-11-03T05:28:20.458Z,24.92
2022-11-03T05:33:19.615Z,23.70
2022-11-03T05:38:16.943Z,25.70
2022-11-03T05:43:14.489Z,23.38
2022-11-03T05:48:17.065Z,26.30
2022-11-03T05:53:16.502Z,26.13
2022-11-03T05:58:31.250Z,27.25
2022-11-03T06:03:28.695Z,26.52
2022-11-03T06:08:33.518Z,27.88
2022-11-03T06:13:31.101Z,28.73
2022-11-03T06:18:30.931Z,31.05
2022-11-03T06:23:27.282Z,30.60
2022-11-03T06:28:29.275Z,30.85
2022-11-03T06:33:26.843Z,29.40
2022-11-03T06:38:24.894Z,31.73
2022-11-03T06:43:28.555Z,30.98
2022-11-03T06:48:26.261Z,32.47
2022-11-03T06:53:27.461Z,32.10
2022-11-03T06:58:23.748Z,31.83
2022-11-03T07:03:27.821Z,32.38
2022-11-03T07:08:29.020Z,31.27
2022-11-03T07:13:25.738Z,29.40
2022-11-03T07:18:31.133Z,29.45
2022-11-03T07:23:29.308Z,32.03
2022-11-03T07:28:29.481Z,28.60
2022-11-03T07:33:27.123Z,26.10
2022-11-03T07:38:24.211Z,29.10
2022-11-03T07:43:31.639Z,28.38
2022-11-03T07:48:28.197Z,27.50
2022-11-03T07:53:26.137Z,25.58
2022-11-03T07:58:32.066Z,26.33
2022-11-03T08:03:42.261Z,25.38
2022-11-03T08:08:38.588Z,28.05
2022-11-03T08:13:34.873Z,25.48
2022-11-03T08:18:31.249Z,27.30
2022-11-03T08:23:27.942Z,26.00
2022-11-03T08:28:24.541Z,25.42
2022-11-03T08:33:20.955Z,26.75
2022-11-03T08:38:17.256Z,24.83
2022-11-03T08:43:13.528Z,24.17
2022-11-03T08:48:09.960Z,22.90
2022-11-03T08:53:06.342Z,22.88
2022-11-03T08:58:02.559Z,21.58
2022-11-03T09:02:58.754Z,23.83
2022-11-03T09:13:11.250Z,21.75
2022-11-03T09:18:08.000Z,18.23
2022-11-03T09:23:04.528Z,17.25
2022-11-03T09:28:01.005Z,17.35
2022-11-03T09:32:57.416Z,17.05
2022-11-03T09:37:53.680Z,17.20
2022-11-03T09:42:50.011Z,17.58
2022-11-03T09:47:47.099Z,15.82
2022-11-03T09:52:47.361Z,16.45
2022-11-03T09:57:46.582Z,15.90
2022-11-03T10:02:43.287Z,16.40
2022-11-03T10:07:39.538Z,15.13
2022-11-03T10:12:36.803Z,15.73
2022-11-03T10:17:33.050Z,14.90
2022-11-03T10:22:29.234Z,17.38
2022-11-03T10:27:25.928Z,16.42
2022-11-03T10:32:29.630Z,14.02
2022-11-03T10:37:26.226Z,14.63
2022-11-03T10:42:22.870Z,14.48
2022-11-03T10:47:23.954Z,13.75
2022-11-03T10:52:20.452Z,14.70
2022-11-03T10:57:16.925Z,13.68
2022-11-03T11:02:24.329Z,16.13
2022-11-03T11:07:24.841Z,13.73
2022-11-03T11:12:24.997Z,12.00
2022-11-03T11:17:47.356Z,17.33
2022-11-03T11:22:43.739Z,11.52
2022-11-03T11:27:40.012Z,12.38
2022-11-03T11:32:39.295Z,12.40
2022-11-03T11:37:36.297Z,11.43
2022-11-03T11:42:35.056Z,12.48
2022-11-03T11:47:41.407Z,11.68
2022-11-03T11:52:42.242Z,11.90
2022-11-03T11:57:39.138Z,11.63
2022-11-03T12:02:35.944Z,15.77
2022-11-03T12:07:33.501Z,11.52
2022-11-03T12:12:33.450Z,11.38
2022-11-03T12:17:29.646Z,14.30
2022-11-03T12:22:28.923Z,12.48
2022-11-03T12:27:25.131Z,10.30
2022-11-03T12:32:32.573Z,9.68
2022-11-03T12:37:30.664Z,12.45
2022-11-03T12:42:27.239Z,11.93
2022-11-03T12:47:23.699Z,10.65
2022-11-03T12:52:19.964Z,12.15
2022-11-03T12:57:16.316Z,10.35
2022-11-03T13:02:12.804Z,12.00
2022-11-03T13:07:09.291Z,11.98
2022-11-03T13:12:23.988Z,9.52
2022-11-03T13:17:20.260Z,10.23
2022-11-03T13:22:16.897Z,16.45
2022-11-03T13:27:13.161Z,14.55
2022-11-03T13:32:09.486Z,14.15
2022-11-03T13:37:05.830Z,13.18
2022-11-03T13:42:02.306Z,11.15
2022-11-03T13:46:58.852Z,11.00
2022-11-03T13:51:55.206Z,11.80
2022-11-03T14:07:24.347Z,11.82
2022-11-03T14:12:32.975Z,12.05
2022-11-03T14:17:29.303Z,14.70
2022-11-03T14:22:25.594Z,14.30
2022-11-03T14:27:21.855Z,15.48
2022-11-03T14:32:18.590Z,14.35
2022-11-03T14:37:15.025Z,14.63
2022-11-03T14:42:16.437Z,15.70
2022-11-03T14:47:21.496Z,17.80
2022-11-03T14:52:17.873Z,18.00
2022-11-03T14:57:14.201Z,16.17
2022-11-03T15:02:10.502Z,17.58
2022-11-03T15:07:06.805Z,17.45
2022-11-03T15:12:03.201Z,16.88
2022-11-03T15:16:59.420Z,17.77
2022-11-03T15:21:55.676Z,16.95
2022-11-03T15:26:51.860Z,17.70
2022-11-03T15:31:48.737Z,18.88
2022-11-03T15:36:45.234Z,19.73
2022-11-03T15:41:41.642Z,19.63
2022-11-03T15:46:37.829Z,19.83
2022-11-03T15:51:34.057Z,20.83
2022-11-03T15:56:30.341Z,21.40
2022-11-03T16:01:26.625Z,19.83
2022-11-03T16:06:40.246Z,20.23
2022-11-03T16:11:39.113Z,20.33
2022-11-03T16:16:35.323Z,20.48
2022-11-03T16:21:31.530Z,21.33
2022-11-03T16:26:27.774Z,21.55
2022-11-03T16:31:24.172Z,20.92
2022-11-03T16:36:20.397Z,20.38
2022-11-03T16:41:16.609Z,20.38
2022-11-03T16:46:12.870Z,21.60
2022-11-03T16:51:09.119Z,19.85
2022-11-03T16:56:05.510Z,20.80
2022-11-03T17:01:02.222Z,20.77
2022-11-03T17:05:58.688Z,21.48
2022-11-03T17:10:54.927Z,20.88
2022-11-03T17:15:51.130Z,21.02
2022-11-03T17:20:47.391Z,21.13
2022-11-03T17:25:43.785Z,21.48
2022-11-03T17:30:40.054Z,20.67
2022-11-03T17:35:41.009Z,21.40
2022-11-03T17:40:37.274Z,20.42
2022-11-03T17:45:34.602Z,20.42
2022-11-03T17:50:30.800Z,20.50
2022-11-03T17:55:27.902Z,20.25
2022-11-03T18:00:24.896Z,20.63
2022-11-03T18:05:24.245Z,20.23
2022-11-03T18:10:22.127Z,20.17
2022-11-03T18:15:19.737Z,19.98
2022-11-03T18:20:18.102Z,19.45
2022-11-03T18:25:19.304Z,20.73
2022-11-03T18:30:18.589Z,20.17
2022-11-03T18:35:20.670Z,19.83
2022-11-03T18:40:20.174Z,20.13
2022-11-03T18:45:17.914Z,19.75
2022-11-03T18:50:15.640Z,19.45
2022-11-03T18:55:12.290Z,19.73
2022-11-03T19:00:16.651Z,18.00
2022-11-03T19:05:14.007Z,18.85
2022-11-03T19:10:12.953Z,18.27
2022-11-03T19:15:17.253Z,16.73
2022-11-03T19:20:13.994Z,18.40
2022-11-03T19:25:10.446Z,17.33
2022-11-03T19:30:07.030Z,15.95
2022-11-03T19:35:06.002Z,15.90
2022-11-03T19:40:02.354Z,16.38
2022-11-03T19:44:59.875Z,16.33
2022-11-03T19:49:56.121Z,14.95
2022-11-03T19:54:53.012Z,16.15
2022-11-03T19:59:49.365Z,14.43
2022-11-03T20:04:47.217Z,14.63
2022-11-03T20:09:43.891Z,15.02
2022-11-03T20:14:40.359Z,16.38
2022-11-03T20:19:37.081Z,13.93
2022-11-03T20:24:33.381Z,13.57
2022-11-03T20:29:34.650Z,18.42
2022-11-03T20:34:31.545Z,16.40
2022-11-03T20:39:27.797Z,14.80
2022-11-03T20:44:24.093Z,14.35
2022-11-03T20:49:21.536Z,15.77
2022-11-03T20:54:18.977Z,16.30
2022-11-03T20:59:21.210Z,15.35
2022-11-03T21:04:18.940Z,14.48
2022-11-03T21:09:17.551Z,13.90
2022-11-03T21:14:13.992Z,14.93
2022-11-03T21:19:39.590Z,15.02
2022-11-03T21:24:35.800Z,16.38
2022-11-03T21:29:57.772Z,14.40
2022-11-03T21:34:48.306Z,19.17
2022-11-03T21:39:44.643Z,15.55
2022-11-03T21:44:40.963Z,15.77
2022-11-03T21:49:43.183Z,15.23
2022-11-03T21:54:39.848Z,15.05
2022-11-03T21:59:36.410Z,14.30
2022-11-03T22:04:32.894Z,14.50
2022-11-03T22:09:29.085Z,14.00
2022-11-03T22:14:26.527Z,16.42
2022-11-03T22:19:41.496Z,16.67
2022-11-03T22:25:16.260Z,17.80
2022-11-03T22:30:31.234Z,15.00
2022-11-03T22:35:46.198Z,17.23
2022-11-03T22:41:01.740Z,19.08
2022-11-03T22:45:58.090Z,16.48
2022-11-03T22:50:57.180Z,16.77
2022-11-03T22:55:53.498Z,16.60
2022-11-03T23:00:49.820Z,15.63
2022-11-03T23:05:46.058Z,15.30
2022-11-03T23:10:42.238Z,16.48
2022-11-03T23:15:43.504Z,17.30
2022-11-03T23:20:58.317Z,17.00
2022-11-03T23:25:54.523Z,18.65
2022-11-03T23:30:50.744Z,18.27
2022-11-03T23:35:46.926Z,21.75
2022-11-03T23:40:43.147Z,20.80
2022-11-03T23:45:58.386Z,20.92
2022-11-03T23:50:54.788Z,21.73
2022-11-03T23:56:09.741Z,25.27
